Metar z pełnej godziny Komunikat METAR ze strony awiacja.imgw.pl Metar G00 EPLB METAR EPLB 230700Z 29012KT CAVOK 07/M01 Q1019 =